createdAt,value
2023-04-05T00:02:11.120Z,3.70
2023-04-05T00:04:38.801Z,3.92
2023-04-05T00:07:08.268Z,3.40
2023-04-05T00:09:34.896Z,3.85
2023-04-05T00:12:01.504Z,4.40
2023-04-05T00:14:28.081Z,5.13
2023-04-05T00:16:55.037Z,3.83
2023-04-05T00:19:23.333Z,4.13
2023-04-05T00:21:50.190Z,4.00
2023-04-05T00:24:17.002Z,4.40
2023-04-05T00:26:44.161Z,3.53
2023-04-05T00:29:10.900Z,4.35
2023-04-05T00:31:37.701Z,3.78
2023-04-05T00:34:06.027Z,5.03
2023-04-05T00:36:32.756Z,3.97
2023-04-05T00:38:59.330Z,4.43
2023-04-05T00:41:25.858Z,4.05
2023-04-05T00:43:52.440Z,4.15
2023-04-05T00:46:19.022Z,3.63
2023-04-05T00:48:45.952Z,4.15
2023-04-05T00:51:12.623Z,4.47
2023-04-05T00:53:40.753Z,3.88
2023-04-05T00:56:08.559Z,4.40
2023-04-05T00:58:35.077Z,3.78
2023-04-05T01:01:14.182Z,3.60
2023-04-05T01:03:47.310Z,4.13
2023-04-05T01:06:27.565Z,4.07
2023-04-05T01:09:32.872Z,4.22
2023-04-05T01:12:02.445Z,4.00
2023-04-05T01:14:29.036Z,3.83
2023-04-05T01:16:58.443Z,3.97
2023-04-05T01:19:29.182Z,4.10
2023-04-05T01:25:10.977Z,4.90
2023-04-05T01:28:03.960Z,4.53
2023-04-05T01:30:34.984Z,4.70
2023-04-05T01:35:45.104Z,4.53
2023-04-05T01:38:14.278Z,4.90
2023-04-05T01:40:42.147Z,4.55
2023-04-05T01:43:15.976Z,3.90
2023-04-05T01:45:43.408Z,4.28
2023-04-05T01:48:10.292Z,4.18
2023-04-05T01:50:37.060Z,3.97
2023-04-05T01:53:03.831Z,4.22
2023-04-05T01:55:30.458Z,4.32
2023-04-05T01:57:58.103Z,3.78
2023-04-05T02:00:24.963Z,4.18
2023-04-05T02:02:51.902Z,4.18
2023-04-05T02:05:18.517Z,4.38
2023-04-05T02:07:45.078Z,4.10
2023-04-05T02:10:12.072Z,4.78
2023-04-05T02:12:39.272Z,4.38
2023-04-05T02:15:06.855Z,4.35
2023-04-05T02:17:39.476Z,4.30
2023-04-05T02:20:07.816Z,4.65
2023-04-05T02:22:34.737Z,4.28
2023-04-05T02:25:01.690Z,4.68
2023-04-05T02:27:28.218Z,4.63
2023-04-05T02:29:55.814Z,4.53
2023-04-05T02:32:22.324Z,3.80
2023-04-05T02:34:48.816Z,3.83
2023-04-05T02:37:15.404Z,3.70
2023-04-05T02:39:41.983Z,3.72
2023-04-05T02:42:08.608Z,3.97
2023-04-05T02:44:35.552Z,4.00
2023-04-05T02:47:02.468Z,3.95
2023-04-05T02:49:31.817Z,4.25
2023-04-05T02:52:01.184Z,4.07
2023-04-05T02:54:27.805Z,3.70
2023-04-05T02:57:02.379Z,4.00
2023-04-05T02:59:34.189Z,3.92
2023-04-05T03:02:01.448Z,4.00
2023-04-05T03:04:28.417Z,4.28
2023-04-05T03:07:04.901Z,3.85
2023-04-05T03:09:35.024Z,4.68
2023-04-05T03:12:06.064Z,3.85
2023-04-05T03:14:36.590Z,3.60
2023-04-05T03:17:03.419Z,4.20
2023-04-05T03:19:38.554Z,3.67
2023-04-05T03:22:13.671Z,3.38
2023-04-05T03:24:42.549Z,4.00
2023-04-05T03:27:11.671Z,3.87
2023-04-05T03:29:52.596Z,3.70
2023-04-05T03:32:19.191Z,4.00
2023-04-05T03:34:51.973Z,4.00
2023-04-05T03:37:20.169Z,5.85
2023-04-05T03:39:57.472Z,3.47
2023-04-05T03:42:24.433Z,3.83
2023-04-05T03:44:53.160Z,4.20
2023-04-05T03:47:19.981Z,3.42
2023-04-05T03:49:46.486Z,4.38
2023-04-05T03:52:13.000Z,3.00
2023-04-05T03:57:11.477Z,3.63
2023-04-05T03:59:39.888Z,3.20
2023-04-05T04:02:07.741Z,3.17
2023-04-05T04:04:34.432Z,3.58
2023-04-05T04:07:01.006Z,3.78
2023-04-05T04:09:32.094Z,3.83
2023-04-05T04:12:05.620Z,3.47
2023-04-05T04:14:37.204Z,3.50
2023-04-05T04:17:36.142Z,4.05
2023-04-05T04:20:27.367Z,3.97
2023-04-05T04:23:14.516Z,4.13
2023-04-05T04:26:03.084Z,4.10
2023-04-05T04:28:48.771Z,3.80
2023-04-05T04:31:33.940Z,4.00
2023-04-05T04:34:30.595Z,3.67
2023-04-05T04:37:30.248Z,3.67
2023-04-05T04:40:47.871Z,3.83
2023-04-05T04:43:27.280Z,3.60
2023-04-05T04:46:15.299Z,3.28
2023-04-05T04:49:06.662Z,3.65
2023-04-05T04:51:33.939Z,3.78
2023-04-05T04:54:00.761Z,3.53
2023-04-05T04:56:27.496Z,3.72
2023-04-05T04:58:56.403Z,3.50
2023-04-05T05:01:25.025Z,3.15
2023-04-05T05:03:52.221Z,3.72
2023-04-05T05:06:23.721Z,3.15
2023-04-05T05:08:50.834Z,4.05
2023-04-05T05:11:17.365Z,3.63
2023-04-05T05:13:43.917Z,3.20
2023-04-05T05:16:17.861Z,4.20
2023-04-05T05:18:48.093Z,3.47
2023-04-05T05:21:14.603Z,3.17
2023-04-05T05:23:41.546Z,3.15
2023-04-05T05:26:08.082Z,3.90
2023-04-05T05:28:34.670Z,5.68
2023-04-05T05:31:01.203Z,3.42
2023-04-05T05:33:27.773Z,3.42
2023-04-05T05:35:54.346Z,3.67
2023-04-05T05:38:20.921Z,3.45
2023-04-05T05:40:47.425Z,3.45
2023-04-05T05:43:13.962Z,3.08
2023-04-05T05:45:40.496Z,3.28
2023-04-05T05:48:07.099Z,3.50
2023-04-05T05:50:33.688Z,3.47
2023-04-05T05:53:01.603Z,4.32
2023-04-05T05:55:28.545Z,3.28
2023-04-05T05:57:55.254Z,3.78
2023-04-05T06:00:22.781Z,3.35
2023-04-05T06:02:49.633Z,3.53
2023-04-05T06:05:16.276Z,4.82
2023-04-05T06:07:42.779Z,3.47
2023-04-05T06:10:09.664Z,3.40
2023-04-05T06:12:36.154Z,3.00
2023-04-05T06:15:02.987Z,3.30
2023-04-05T06:17:29.619Z,3.42
2023-04-05T06:19:56.189Z,3.08
2023-04-05T06:22:23.672Z,3.20
2023-04-05T06:24:50.238Z,3.03
2023-04-05T06:27:16.861Z,4.25
2023-04-05T06:29:43.476Z,3.00
2023-04-05T06:32:10.127Z,3.05
2023-04-05T06:34:36.969Z,3.30
2023-04-05T06:37:03.579Z,3.10
2023-04-05T06:39:30.141Z,2.95
2023-04-05T06:41:56.679Z,3.80
2023-04-05T06:46:54.177Z,2.88
2023-04-05T06:49:20.726Z,3.30
2023-04-05T06:51:47.230Z,3.00
2023-04-05T06:54:13.838Z,3.38
2023-04-05T06:56:40.601Z,3.30
2023-04-05T06:59:07.135Z,2.92
2023-04-05T07:01:33.753Z,3.30
2023-04-05T07:04:00.728Z,3.30
2023-04-05T07:06:27.355Z,3.00
2023-04-05T07:08:53.873Z,3.80
2023-04-05T07:11:21.464Z,3.05
2023-04-05T07:13:47.967Z,3.47
2023-04-05T07:16:14.546Z,4.10
2023-04-05T07:18:41.065Z,3.67
2023-04-05T07:21:07.599Z,3.90
2023-04-05T07:23:34.093Z,3.85
2023-04-05T07:26:04.465Z,4.10
2023-04-05T07:28:35.611Z,3.88
2023-04-05T07:31:03.178Z,4.47
2023-04-05T07:33:29.664Z,4.28
2023-04-05T07:35:57.046Z,4.50
2023-04-05T07:38:24.000Z,4.10
2023-04-05T07:40:51.155Z,4.55
2023-04-05T07:43:18.651Z,4.53
2023-04-05T07:45:45.615Z,4.78
2023-04-05T07:48:12.121Z,4.80
2023-04-05T07:50:41.125Z,4.97
2023-04-05T07:53:08.255Z,5.53
2023-04-05T07:55:37.820Z,4.72
2023-04-05T07:58:04.315Z,4.40
2023-04-05T08:00:30.836Z,5.57
2023-04-05T08:03:00.639Z,5.30
2023-04-05T08:07:57.965Z,5.28
2023-04-05T08:10:24.918Z,4.53
2023-04-05T08:12:51.456Z,4.72
2023-04-05T08:15:17.954Z,4.45
2023-04-05T08:17:44.519Z,5.15
2023-04-05T08:20:11.392Z,5.32
2023-04-05T08:22:37.903Z,5.35
2023-04-05T08:25:04.633Z,5.22
2023-04-05T08:27:31.186Z,5.45
2023-04-05T08:29:57.735Z,6.45
2023-04-05T08:32:24.281Z,5.78
2023-04-05T08:34:50.766Z,5.18
2023-04-05T08:37:17.280Z,5.18
2023-04-05T08:39:43.773Z,5.45
2023-04-05T08:42:18.822Z,5.30
2023-04-05T08:44:46.565Z,5.80
2023-04-05T08:47:15.318Z,5.10
2023-04-05T08:49:45.888Z,5.25
2023-04-05T08:52:12.493Z,4.78
2023-04-05T08:54:39.137Z,4.72
2023-04-05T08:57:06.195Z,5.13
2023-04-05T08:59:35.527Z,5.07
2023-04-05T09:02:04.553Z,4.80
2023-04-05T09:04:32.533Z,4.60
2023-04-05T09:06:59.488Z,4.90
2023-04-05T09:09:26.255Z,4.47
2023-04-05T09:11:53.072Z,4.30
2023-04-05T09:14:20.771Z,5.47
2023-04-05T09:16:47.310Z,5.30
2023-04-05T09:19:14.080Z,4.18
2023-04-05T09:22:00.644Z,4.68
2023-04-05T09:24:35.389Z,4.90
2023-04-05T09:27:13.005Z,4.72
2023-04-05T09:29:41.403Z,5.40
2023-04-05T09:32:10.142Z,6.05
2023-04-05T09:34:44.752Z,4.45
2023-04-05T09:37:20.774Z,4.97
2023-04-05T09:39:49.857Z,4.32
2023-04-05T09:42:19.256Z,4.20
2023-04-05T09:47:22.415Z,5.38
2023-04-05T09:49:53.466Z,5.28
2023-04-05T09:52:32.111Z,4.60
2023-04-05T09:55:01.725Z,5.05
2023-04-05T09:57:30.476Z,5.07
2023-04-05T09:59:57.017Z,5.35
2023-04-05T10:02:24.104Z,5.30
2023-04-05T10:04:51.218Z,4.60
2023-04-05T10:07:19.822Z,4.82
2023-04-05T10:09:47.521Z,4.47
2023-04-05T10:12:23.313Z,3.80
2023-04-05T10:14:49.936Z,4.28
2023-04-05T10:17:20.183Z,4.45
2023-04-05T10:20:13.944Z,5.07
2023-04-05T10:23:03.677Z,5.07
2023-04-05T10:25:50.402Z,4.05
2023-04-05T10:28:25.282Z,4.10
2023-04-05T10:30:53.079Z,4.60
2023-04-05T10:33:31.961Z,4.22
2023-04-05T10:36:38.234Z,3.92
2023-04-05T10:39:26.470Z,4.18
2023-04-05T10:41:54.954Z,4.15
2023-04-05T10:44:26.258Z,4.53
2023-04-05T10:46:54.668Z,4.43
2023-04-05T10:49:37.696Z,4.10
2023-04-05T10:52:04.538Z,4.55
2023-04-05T10:54:36.671Z,4.68
2023-04-05T10:57:07.594Z,4.68
2023-04-05T10:59:36.513Z,4.28
2023-04-05T11:02:04.277Z,4.95
2023-04-05T11:04:33.635Z,4.40
2023-04-05T11:07:14.673Z,4.07
2023-04-05T11:09:51.601Z,4.22
2023-04-05T11:12:18.259Z,5.10
2023-04-05T11:14:44.907Z,4.00
2023-04-05T11:17:28.529Z,3.53
2023-04-05T11:20:05.317Z,3.95
2023-04-05T11:22:31.923Z,3.88
2023-04-05T11:25:02.783Z,3.85
2023-04-05T11:27:34.197Z,3.70
2023-04-05T11:30:02.126Z,3.72
2023-04-05T11:32:45.489Z,3.47
2023-04-05T11:35:17.735Z,3.33
2023-04-05T11:37:53.313Z,2.97
2023-04-05T11:40:28.018Z,3.72
2023-04-05T11:43:10.044Z,3.70
2023-04-05T11:45:38.428Z,3.65
2023-04-05T11:48:10.058Z,3.33
2023-04-05T11:50:38.412Z,3.50
2023-04-05T11:53:12.516Z,3.63
2023-04-05T11:55:40.812Z,4.13
2023-04-05T11:58:12.402Z,3.90
2023-04-05T12:00:39.511Z,3.35
2023-04-05T12:03:06.313Z,3.50
2023-04-05T12:05:52.385Z,3.50
2023-04-05T12:08:20.051Z,3.38
2023-04-05T12:11:02.153Z,3.28
2023-04-05T12:13:32.520Z,2.72
2023-04-05T12:16:00.042Z,2.60
2023-04-05T12:18:27.750Z,3.75
2023-04-05T12:20:54.903Z,3.78
2023-04-05T12:23:22.742Z,3.80
2023-04-05T12:25:49.326Z,3.95
2023-04-05T12:28:16.159Z,3.30
2023-04-05T12:30:58.816Z,3.50
2023-04-05T12:33:30.341Z,3.30
2023-04-05T12:35:57.291Z,3.92
2023-04-05T12:38:27.646Z,3.20
2023-04-05T12:40:54.968Z,3.50
2023-04-05T12:43:21.562Z,3.90
2023-04-05T12:45:50.527Z,3.85
2023-04-05T12:48:22.471Z,3.65
2023-04-05T12:50:51.956Z,3.80
2023-04-05T12:53:21.120Z,3.50
2023-04-05T12:55:52.846Z,4.30
2023-04-05T12:58:20.393Z,3.55
2023-04-05T13:00:47.361Z,4.28
2023-04-05T13:03:20.655Z,4.35
2023-04-05T13:05:50.748Z,4.10
2023-04-05T13:08:20.204Z,3.80
2023-04-05T13:10:48.024Z,3.97
2023-04-05T13:13:16.360Z,3.80
2023-04-05T13:15:43.757Z,3.33
2023-04-05T13:18:10.748Z,3.03
2023-04-05T13:20:37.729Z,3.45
2023-04-05T13:23:04.277Z,3.15
2023-04-05T13:25:30.825Z,3.33
2023-04-05T13:27:57.381Z,3.10
2023-04-05T13:30:23.983Z,3.95
2023-04-05T13:32:50.545Z,3.05
2023-04-05T13:35:17.148Z,3.10
2023-04-05T13:37:43.639Z,3.22
2023-04-05T13:40:10.609Z,2.92
2023-04-05T13:42:37.259Z,2.90
2023-04-05T13:45:04.606Z,2.90
2023-04-05T13:47:31.188Z,3.40
2023-04-05T13:49:57.779Z,3.83
2023-04-05T13:52:25.872Z,3.30
2023-04-05T13:55:03.475Z,3.42
2023-04-05T13:57:30.506Z,4.05
2023-04-05T13:59:57.133Z,3.30
2023-04-05T14:02:26.069Z,3.92
2023-04-05T14:04:53.527Z,3.35
2023-04-05T14:07:24.052Z,3.58
2023-04-05T14:09:50.571Z,3.63
2023-04-05T14:12:17.798Z,3.83
2023-04-05T14:14:44.337Z,3.92
2023-04-05T14:17:12.609Z,3.08
2023-04-05T14:19:39.679Z,3.13
2023-04-05T14:22:06.230Z,3.88
2023-04-05T14:24:32.782Z,3.50
2023-04-05T14:26:59.326Z,3.72
2023-04-05T14:29:25.995Z,3.25
2023-04-05T14:31:54.744Z,4.07
2023-04-05T14:34:21.295Z,3.40
2023-04-05T14:36:47.803Z,3.55
2023-04-05T14:39:14.310Z,3.38
2023-04-05T14:41:41.059Z,3.15
2023-04-05T14:44:07.553Z,2.97
2023-04-05T14:46:34.128Z,3.42
2023-04-05T14:49:00.675Z,3.67
2023-04-05T14:51:27.456Z,3.30
2023-04-05T14:53:53.980Z,2.70
2023-04-05T14:56:21.099Z,3.50
2023-04-05T14:58:47.673Z,3.33
2023-04-05T15:01:14.375Z,3.95
2023-04-05T15:03:41.109Z,4.20
2023-04-05T15:06:07.790Z,3.55
2023-04-05T15:08:34.300Z,3.70
2023-04-05T15:11:00.957Z,3.13
2023-04-05T15:13:27.552Z,3.78
2023-04-05T15:15:54.076Z,3.42
2023-04-05T15:18:20.911Z,3.10
2023-04-05T15:20:47.469Z,3.80
2023-04-05T15:23:14.096Z,3.25
2023-04-05T15:25:40.652Z,3.80
2023-04-05T15:28:07.296Z,2.92
2023-04-05T15:30:33.930Z,3.30
2023-04-05T15:33:00.809Z,3.78
2023-04-05T15:35:27.607Z,3.10
2023-04-05T15:37:54.208Z,3.53
2023-04-05T15:40:20.836Z,3.08
2023-04-05T15:42:47.371Z,3.90
2023-04-05T15:45:13.954Z,2.65
2023-04-05T15:47:41.603Z,3.17
2023-04-05T15:50:08.248Z,2.75
2023-04-05T15:52:35.432Z,2.90
2023-04-05T15:55:02.633Z,3.05
2023-04-05T15:57:29.188Z,3.42
2023-04-05T15:59:55.693Z,3.10
2023-04-05T16:02:22.514Z,2.67
2023-04-05T16:04:49.116Z,3.17
2023-04-05T16:07:15.679Z,2.70
2023-04-05T16:09:42.198Z,3.25
2023-04-05T16:12:08.730Z,2.50
2023-04-05T16:14:35.285Z,3.05
2023-04-05T16:17:01.974Z,2.20
2023-04-05T16:19:28.526Z,2.85
2023-04-05T16:21:55.899Z,2.97
2023-04-05T16:24:22.574Z,3.20
2023-04-05T16:26:49.317Z,2.65
2023-04-05T16:29:15.863Z,3.42
2023-04-05T16:31:47.122Z,3.30
2023-04-05T16:34:14.159Z,3.30
2023-04-05T16:36:41.766Z,3.35
2023-04-05T16:39:08.868Z,3.25
2023-04-05T16:41:37.957Z,2.88
2023-04-05T16:44:04.634Z,3.55
2023-04-05T16:46:32.291Z,3.70
2023-04-05T16:49:02.493Z,3.55
2023-04-05T16:51:29.294Z,3.67
2023-04-05T16:53:55.968Z,3.97
2023-04-05T16:56:23.408Z,4.82
2023-04-05T16:58:50.018Z,4.82
2023-04-05T17:01:16.778Z,4.75
2023-04-05T17:03:46.940Z,4.32
2023-04-05T17:06:14.521Z,3.53
2023-04-05T17:08:41.117Z,4.03
2023-04-05T17:11:07.776Z,3.65
2023-04-05T17:13:34.284Z,3.63
2023-04-05T17:16:00.953Z,3.70
2023-04-05T17:18:27.685Z,4.82
2023-04-05T17:20:54.215Z,4.22
2023-04-05T17:23:20.790Z,3.80
2023-04-05T17:25:47.373Z,3.92
2023-04-05T17:28:13.941Z,4.45
2023-04-05T17:30:40.487Z,4.07
2023-04-05T17:33:07.044Z,3.80
2023-04-05T17:35:33.751Z,3.92
2023-04-05T17:38:03.155Z,4.18
2023-04-05T17:40:30.721Z,4.45
2023-04-05T17:42:57.222Z,4.95
2023-04-05T17:45:23.847Z,4.63
2023-04-05T17:47:50.485Z,4.97
2023-04-05T17:50:17.181Z,4.93
2023-04-05T17:52:43.799Z,5.70
2023-04-05T17:55:10.460Z,5.03
2023-04-05T17:57:36.948Z,5.30
2023-04-05T18:00:04.108Z,5.40
2023-04-05T18:02:31.506Z,5.55
2023-04-05T18:04:58.089Z,5.22
2023-04-05T18:07:24.627Z,4.88
2023-04-05T18:09:51.156Z,5.50
2023-04-05T18:12:18.215Z,5.75
2023-04-05T18:14:44.863Z,5.78
2023-04-05T18:17:11.499Z,5.95
2023-04-05T18:19:38.199Z,6.13
2023-04-05T18:22:04.883Z,5.88
2023-04-05T18:24:31.505Z,5.28
2023-04-05T18:26:58.098Z,5.25
2023-04-05T18:29:28.374Z,6.13
2023-04-05T18:31:55.872Z,5.88
2023-04-05T18:34:22.510Z,6.20
2023-04-05T18:36:49.040Z,6.10
2023-04-05T18:39:16.694Z,6.90
2023-04-05T18:41:43.256Z,7.22
2023-04-05T18:44:09.799Z,6.43
2023-04-05T18:46:36.356Z,5.28
2023-04-05T18:49:03.252Z,5.70
2023-04-05T18:51:29.905Z,5.40
2023-04-05T18:53:57.576Z,5.43
2023-04-05T18:56:24.168Z,5.00
2023-04-05T18:58:51.146Z,5.50
2023-04-05T19:01:19.811Z,4.78
2023-04-05T19:03:47.346Z,4.80
2023-04-05T19:06:14.168Z,5.07
2023-04-05T19:08:40.999Z,5.95
2023-04-05T19:11:07.683Z,5.15
2023-04-05T19:13:34.248Z,5.68
2023-04-05T19:16:00.829Z,5.78
2023-04-05T19:18:28.020Z,6.32
2023-04-05T19:20:55.945Z,5.38
2023-04-05T19:23:22.924Z,5.18
2023-04-05T19:25:49.453Z,5.70
2023-04-05T19:28:16.312Z,4.78
2023-04-05T19:30:43.524Z,6.03
2023-04-05T19:33:10.462Z,4.90
2023-04-05T19:35:37.160Z,5.40
2023-04-05T19:38:04.880Z,5.32
2023-04-05T19:40:31.617Z,5.43
2023-04-05T19:42:59.681Z,4.30
2023-04-05T19:45:27.626Z,5.32
2023-04-05T19:47:55.255Z,5.05
2023-04-05T19:50:47.995Z,5.40
2023-04-05T19:53:41.755Z,4.70
2023-04-05T19:56:21.009Z,4.78
2023-04-05T19:58:49.367Z,5.25
2023-04-05T20:01:34.279Z,5.10
2023-04-05T20:04:02.570Z,5.32
2023-04-05T20:06:30.273Z,5.65
2023-04-05T20:09:02.418Z,5.32
2023-04-05T20:11:29.035Z,5.13
2023-04-05T20:13:56.995Z,6.32
2023-04-05T20:16:28.881Z,5.50
2023-04-05T20:18:59.292Z,5.05
2023-04-05T20:21:26.133Z,5.10
2023-04-05T20:23:52.953Z,5.32
2023-04-05T20:26:29.514Z,5.72
2023-04-05T20:29:01.051Z,5.25
2023-04-05T20:31:29.461Z,5.65
2023-04-05T20:34:15.413Z,5.07
2023-04-05T20:36:50.894Z,5.68
2023-04-05T20:39:17.504Z,5.68
2023-04-05T20:41:44.755Z,5.90
2023-04-05T20:44:11.296Z,5.47
2023-04-05T20:46:37.978Z,5.25
2023-04-05T20:49:04.742Z,6.15
2023-04-05T20:51:31.726Z,6.13
2023-04-05T20:53:58.332Z,5.78
2023-04-05T20:56:25.054Z,6.28
2023-04-05T20:58:51.650Z,5.65
2023-04-05T21:01:18.307Z,5.65
2023-04-05T21:03:45.051Z,6.18
2023-04-05T21:06:11.767Z,6.13
2023-04-05T21:08:39.722Z,6.57
2023-04-05T21:11:07.162Z,6.25
2023-04-05T21:13:33.813Z,6.50
2023-04-05T21:16:00.652Z,6.80
2023-04-05T21:18:27.273Z,6.38
2023-04-05T21:20:54.226Z,7.22
2023-04-05T21:23:22.945Z,6.05
2023-04-05T21:25:50.001Z,7.53
2023-04-05T21:28:16.788Z,6.40
2023-04-05T21:30:43.774Z,6.28
2023-04-05T21:33:10.635Z,6.45
2023-04-05T21:35:37.560Z,6.60
2023-04-05T21:38:04.100Z,7.07
2023-04-05T21:40:30.774Z,6.68
2023-04-05T21:42:57.606Z,7.00
2023-04-05T21:45:24.431Z,6.78
2023-04-05T21:47:50.984Z,6.97
2023-04-05T21:50:17.512Z,7.07
2023-04-05T21:52:45.365Z,7.45
2023-04-05T21:55:12.216Z,6.78
2023-04-05T21:57:38.744Z,6.90
2023-04-05T22:00:10.702Z,6.82
2023-04-05T22:02:40.148Z,6.60
2023-04-05T22:05:07.586Z,7.13
2023-04-05T22:07:34.468Z,6.47
2023-04-05T22:10:01.668Z,6.38
2023-04-05T22:12:28.376Z,7.20
2023-04-05T22:14:54.891Z,7.70
2023-04-05T22:17:21.552Z,7.40
2023-04-05T22:19:48.361Z,6.20
2023-04-05T22:22:16.671Z,7.28
2023-04-05T22:24:43.469Z,7.78
2023-04-05T22:27:10.051Z,6.43
2023-04-05T22:29:37.114Z,6.50
2023-04-05T22:32:03.697Z,6.82
2023-04-05T22:34:30.468Z,6.55
2023-04-05T22:36:56.961Z,6.72
2023-04-05T22:39:23.463Z,6.20
2023-04-05T22:41:49.960Z,5.75
2023-04-05T22:44:16.437Z,6.72
2023-04-05T22:46:42.983Z,6.45
2023-04-05T22:49:09.659Z,6.25
2023-04-05T22:51:36.331Z,5.82
2023-04-05T22:54:02.816Z,5.97
2023-04-05T22:56:29.304Z,5.85
2023-04-05T22:58:55.867Z,6.93
2023-04-05T23:01:22.465Z,6.78
2023-04-05T23:03:49.014Z,6.03
2023-04-05T23:06:15.900Z,6.50
2023-04-05T23:08:42.423Z,5.70
2023-04-05T23:11:09.015Z,6.15
2023-04-05T23:13:35.501Z,6.63
2023-04-05T23:16:02.154Z,6.45
2023-04-05T23:18:28.666Z,6.32
2023-04-05T23:20:55.427Z,6.43
2023-04-05T23:23:21.927Z,6.43
2023-04-05T23:25:48.474Z,6.03
2023-04-05T23:28:15.414Z,6.30
2023-04-05T23:30:41.925Z,5.93
2023-04-05T23:33:08.582Z,6.50
2023-04-05T23:35:39.804Z,6.22
2023-04-05T23:38:07.214Z,7.03
2023-04-05T23:40:33.868Z,6.20
2023-04-05T23:43:00.583Z,6.15
2023-04-05T23:45:27.088Z,6.50
2023-04-05T23:47:55.520Z,5.75
2023-04-05T23:50:22.132Z,6.30
2023-04-05T23:52:49.380Z,6.78
2023-04-05T23:55:16.307Z,6.03
2023-04-05T23:57:42.924Z,6.18
